Time;durP1;ratioP1;P1;durP2;ratioP2;P2;SDS_P1;SDS_P2;PMS_P1;PMS_P2;Temp;Humidity;BMP_temperature;BMP_pressure;BME280_temperature;BME280_humidity;BME280_pressure;Samples;Min_cycle;Max_cycle;Signal;HPM_P1;HPM_P2
2021/06/28 00:00:04;;;;;;;3.63;1.52;;;;;;;29.00;39.50;96553.22;4948922;28;20078;-35
2021/06/28 00:02:32;;;;;;;3.95;1.63;;;;;;;29.00;39.33;96560.28;4936053;28;20039;-37
2021/06/28 00:04:57;;;;;;;2.30;1.60;;;;;;;28.99;39.63;96562.06;4937135;28;20093;-31
2021/06/28 00:07:23;;;;;;;1.30;1.20;;;;;;;28.99;39.60;96569.97;4930117;28;20041;-34
2021/06/28 00:09:48;;;;;;;5.85;1.40;;;;;;;28.99;39.44;96569.16;4929367;28;20043;-32
2021/06/28 00:12:13;;;;;;;4.72;1.58;;;;;;;29.01;39.57;96562.81;4934002;28;20035;-36
2021/06/28 00:14:39;;;;;;;3.17;1.60;;;;;;;29.01;39.44;96569.88;4936270;28;20370;-37
2021/06/28 00:17:04;;;;;;;2.70;1.52;;;;;;;29.02;39.36;96574.22;4936593;28;20035;-36
2021/06/28 00:19:30;;;;;;;5.35;1.60;;;;;;;29.02;39.30;96568.97;4937164;28;20034;-39
2021/06/28 00:21:55;;;;;;;4.95;1.60;;;;;;;29.03;39.45;96568.00;4931310;28;20038;-34
2021/06/28 00:24:20;;;;;;;2.75;1.45;;;;;;;29.03;39.37;96565.34;4935337;28;20038;-36
2021/06/28 00:26:46;;;;;;;2.38;1.20;;;;;;;29.03;39.42;96560.09;4930885;28;20035;-32
2021/06/28 00:29:11;;;;;;;4.78;1.60;;;;;;;29.03;39.46;96554.81;4936084;28;20035;-33
2021/06/28 00:31:38;;;;;;;2.35;1.40;;;;;;;29.03;39.09;96547.72;4934197;28;20038;-32
2021/06/28 00:34:04;;;;;;;1.60;1.30;;;;;;;29.03;39.08;96545.06;4932678;28;21624;-36
2021/06/28 00:36:29;;;;;;;1.73;1.20;;;;;;;29.04;39.21;96543.28;4947507;28;20134;-35
2021/06/28 00:38:54;;;;;;;2.10;1.40;;;;;;;29.04;39.62;96545.94;4933738;28;20581;-34
2021/06/28 00:41:20;;;;;;;2.72;1.48;;;;;;;29.04;39.47;96545.94;4929784;28;20050;-38
2021/06/28 00:43:45;;;;;;;2.65;1.10;;;;;;;29.04;39.50;96540.66;4938024;28;20030;-33
2021/06/28 00:46:11;;;;;;;2.05;1.30;;;;;;;29.03;39.27;96537.16;4937442;28;20493;-37
2021/06/28 00:48:36;;;;;;;3.92;1.63;;;;;;;29.04;39.61;96530.09;4937073;28;20512;-38
2021/06/28 00:51:01;;;;;;;2.42;1.10;;;;;;;29.03;39.50;96525.78;4933130;28;20039;-38
2021/06/28 00:53:27;;;;;;;1.90;1.50;;;;;;;29.04;39.37;96535.38;4951313;28;20038;-36
2021/06/28 00:55:53;;;;;;;3.25;1.30;;;;;;;29.05;39.48;96531.78;4933505;28;20042;-32
2021/06/28 00:58:18;;;;;;;1.80;1.30;;;;;;;29.05;39.48;96526.50;4933193;28;20034;-35
2021/06/28 01:00:44;;;;;;;1.95;1.35;;;;;;;29.05;39.42;96523.88;4934283;28;20261;-35
2021/06/28 01:03:09;;;;;;;4.32;1.23;;;;;;;29.06;39.15;96522.94;4938920;28;20039;-34
2021/06/28 01:05:36;;;;;;;2.30;1.38;;;;;;;29.06;39.44;96525.56;4963692;28;20062;-35
2021/06/28 01:08:02;;;;;;;1.85;1.45;;;;;;;29.05;39.35;96522.09;4931145;28;20026;-36
2021/06/28 01:10:28;;;;;;;1.65;1.25;;;;;;;29.06;39.38;96512.38;4933785;28;20126;-37
2021/06/28 01:12:53;;;;;;;3.05;1.33;;;;;;;29.06;39.47;96510.56;4931041;28;20022;-37
2021/06/28 01:15:19;;;;;;;1.90;1.25;;;;;;;29.06;39.58;96509.75;4935742;28;20104;-36
2021/06/28 01:17:44;;;;;;;3.25;1.60;;;;;;;29.07;39.14;96498.25;4930731;28;20030;-32
2021/06/28 01:20:14;;;;;;;2.88;1.17;;;;;;;29.08;39.47;96506.06;4932115;28;20605;-31
2021/06/28 01:22:42;;;;;;;1.25;1.00;;;;;;;29.09;39.20;96501.59;4959873;28;20692;-36
2021/06/28 01:25:13;;;;;;;1.60;1.27;;;;;;;29.09;39.52;96512.16;4931973;28;20031;-34
2021/06/28 01:27:38;;;;;;;2.15;1.17;;;;;;;29.10;39.25;96508.56;4932276;28;20050;-33
2021/06/28 01:30:06;;;;;;;1.88;1.13;;;;;;;29.11;39.18;96515.53;4933370;28;20321;-37
2021/06/28 01:32:31;;;;;;;1.73;1.05;;;;;;;29.12;39.32;96511.94;4934125;28;20051;-34
2021/06/28 01:34:57;;;;;;;2.47;1.20;;;;;;;29.12;39.21;96511.94;4933242;28;20085;-36
2021/06/28 01:37:23;;;;;;;3.20;1.30;;;;;;;29.09;39.40;96501.59;4930605;28;20035;-33
2021/06/28 01:39:50;;;;;;;2.03;1.30;;;;;;;29.12;39.45;96506.66;4932858;28;20146;-37
2021/06/28 01:42:15;;;;;;;1.90;1.20;;;;;;;29.14;39.07;96507.38;4929136;28;20094;-40
2021/06/28 01:44:41;;;;;;;1.98;1.13;;;;;;;29.14;39.40;96503.91;4929820;28;20035;-34
2021/06/28 01:47:06;;;;;;;1.88;1.40;;;;;;;29.14;39.05;96507.38;4937415;28;21123;-35
2021/06/28 01:49:32;;;;;;;2.03;1.30;;;;;;;29.13;39.38;96497.78;4935043;28;20047;-35
2021/06/28 01:51:57;;;;;;;1.45;1.10;;;;;;;29.13;39.25;96491.69;4933779;28;20419;-35
2021/06/28 01:54:22;;;;;;;2.00;0.98;;;;;;;29.14;39.70;96488.09;4933334;28;20046;-31
2021/06/28 01:56:48;;;;;;;1.20;1.10;;;;;;;29.14;39.01;96475.72;4933901;28;20030;-35
2021/06/28 01:59:13;;;;;;;1.95;1.25;;;;;;;29.13;39.21;96471.41;4933863;28;20035;-37
2021/06/28 02:01:41;;;;;;;1.63;1.25;;;;;;;29.14;39.11;96467.81;4930992;28;20061;-35
2021/06/28 02:04:06;;;;;;;1.40;1.00;;;;;;;29.14;39.19;96464.34;4932848;28;20098;-35
2021/06/28 02:06:31;;;;;;;2.20;1.15;;;;;;;29.15;39.17;96461.59;4932509;28;20038;-36
2021/06/28 02:08:57;;;;;;;1.88;1.30;;;;;;;29.15;39.22;96468.66;4936823;28;20652;-39
2021/06/28 02:11:22;;;;;;;1.95;1.30;;;;;;;29.14;39.64;96469.63;4935431;28;20038;-34
2021/06/28 02:13:48;;;;;;;1.20;1.05;;;;;;;29.13;39.36;96476.69;4936725;28;21852;-36
2021/06/28 02:16:13;;;;;;;1.85;0.82;;;;;;;29.14;39.11;96482.81;4937304;28;20306;-31
2021/06/28 02:18:38;;;;;;;1.25;1.05;;;;;;;29.13;39.42;96487.22;4938144;28;20042;-39
2021/06/28 02:21:04;;;;;;;1.98;1.27;;;;;;;29.12;39.58;96496.09;4937782;28;20318;-34
2021/06/28 02:23:34;;;;;;;1.45;1.10;;;;;;;29.13;39.11;96497.78;4949366;28;20125;-28
2021/06/28 02:26:04;;;;;;;4.05;1.67;;;;;;;29.13;39.42;96503.06;4934043;28;20063;-32
2021/06/28 02:28:32;;;;;;;1.92;1.30;;;;;;;29.14;39.46;96499.47;4939136;28;20027;-34
2021/06/28 02:30:57;;;;;;;1.60;1.27;;;;;;;29.13;39.36;96492.50;4937033;28;20113;-33
2021/06/28 02:33:23;;;;;;;2.92;1.13;;;;;;;29.14;39.27;96488.91;4941355;28;20039;-36
2021/06/28 02:35:48;;;;;;;2.38;1.27;;;;;;;29.14;39.27;96494.19;4935727;28;20970;-30
2021/06/28 02:38:14;;;;;;;3.97;1.00;;;;;;;29.15;39.25;96495.91;4950801;28;20042;-32
2021/06/28 02:40:40;;;;;;;5.68;1.40;;;;;;;29.15;39.36;96495.91;4934147;28;20062;-36
2021/06/28 02:43:05;;;;;;;3.95;1.30;;;;;;;29.15;39.10;96487.13;4951954;28;20042;-38
2021/06/28 02:45:31;;;;;;;4.25;1.20;;;;;;;29.12;39.16;96480.28;4939530;28;20038;-35
2021/06/28 02:47:56;;;;;;;3.38;1.10;;;;;;;29.15;39.05;96472.16;4936883;28;20085;-32
2021/06/28 02:50:21;;;;;;;2.55;1.20;;;;;;;29.17;39.41;96482.56;4937376;28;20027;-35
2021/06/28 02:52:47;;;;;;;1.13;0.93;;;;;;;29.16;39.04;96481.75;4938196;28;20035;-37
2021/06/28 02:55:12;;;;;;;1.60;1.00;;;;;;;29.16;39.35;96487.03;4939488;28;20028;-32
2021/06/28 02:57:38;;;;;;;1.70;1.13;;;;;;;29.18;39.37;96484.28;4936242;28;20064;-36
2021/06/28 03:00:12;;;;;;;4.10;1.00;;;;;;;29.16;39.42;96487.03;4937145;28;20481;-36
2021/06/28 03:02:37;;;;;;;5.35;1.30;;;;;;;29.18;38.95;96495.66;4949271;28;20244;-31
2021/06/28 03:05:07;;;;;;;2.95;1.00;;;;;;;29.18;39.21;96490.38;4933035;28;20026;-36
2021/06/28 03:07:32;;;;;;;1.20;1.00;;;;;;;29.17;39.26;96491.34;4935903;28;20708;-34
2021/06/28 03:09:58;;;;;;;1.20;1.10;;;;;;;29.18;39.20;96498.28;4938523;28;20041;-33
2021/06/28 03:12:23;;;;;;;4.25;1.30;;;;;;;29.18;39.07;96495.66;4933490;28;20277;-36
2021/06/28 03:14:48;;;;;;;2.38;1.25;;;;;;;29.18;39.06;96494.81;4937643;28;20036;-32
2021/06/28 03:17:14;;;;;;;4.13;1.10;;;;;;;29.17;39.48;96491.34;4934358;28;20517;-34
2021/06/28 03:19:39;;;;;;;2.10;1.17;;;;;;;29.17;39.18;96474.66;4949297;28;20057;-38
2021/06/28 03:22:05;;;;;;;2.67;1.00;;;;;;;29.17;39.35;96457.03;4933165;28;20031;-34
2021/06/28 03:24:30;;;;;;;3.45;1.45;;;;;;;29.17;39.16;96441.19;4964466;28;20039;-38
2021/06/28 03:26:56;;;;;;;1.27;1.00;;;;;;;29.17;39.16;96446.47;4934917;28;20086;-33
2021/06/28 03:29:21;;;;;;;1.33;1.20;;;;;;;29.16;39.25;96450.09;4938831;28;20031;-36
2021/06/28 03:31:47;;;;;;;2.00;1.17;;;;;;;29.15;39.51;96472.16;4936630;28;20032;-32
2021/06/28 03:34:12;;;;;;;1.98;1.25;;;;;;;29.16;39.37;96465.06;4938529;28;20043;-34
2021/06/28 03:36:37;;;;;;;2.35;1.15;;;;;;;29.16;39.45;96460.63;4935291;28;20030;-38
2021/06/28 03:39:03;;;;;;;3.92;1.25;;;;;;;29.15;39.11;96458.09;4936031;28;20240;-34
2021/06/28 03:41:29;;;;;;;1.40;1.05;;;;;;;29.15;39.16;96460.75;4936353;28;20117;-37
2021/06/28 03:43:54;;;;;;;1.42;1.05;;;;;;;29.15;39.26;96458.97;4935241;28;20581;-35
2021/06/28 03:46:20;;;;;;;1.85;1.13;;;;;;;29.15;39.43;96451.03;4937785;28;20027;-35
2021/06/28 03:48:45;;;;;;;2.35;0.93;;;;;;;29.15;39.50;96458.97;4940419;28;20050;-36
2021/06/28 03:51:10;;;;;;;2.30;1.08;;;;;;;29.15;39.27;96453.69;4949994;28;20597;-37
2021/06/28 03:53:36;;;;;;;1.92;1.08;;;;;;;29.14;39.30;96446.69;4931613;28;20027;-35
2021/06/28 03:56:06;;;;;;;14.80;1.20;;;;;;;29.14;39.21;96444.06;4934183;28;20037;-32
2021/06/28 03:58:40;;;;;;;1.90;1.00;;;;;;;29.15;39.47;96453.69;4968521;28;21074;-35
2021/06/28 04:01:06;;;;;;;2.05;0.90;;;;;;;29.16;39.16;96443.94;4932721;28;20043;-35
2021/06/28 04:03:34;;;;;;;3.28;1.17;;;;;;;29.15;39.20;96443.13;4934718;28;20077;-31
2021/06/28 04:06:04;;;;;;;2.05;0.98;;;;;;;29.16;39.10;96443.94;4932361;28;20038;-34
2021/06/28 04:08:30;;;;;;;1.65;0.90;;;;;;;29.17;39.65;96437.72;4936018;28;20037;-36
2021/06/28 04:10:56;;;;;;;1.25;1.08;;;;;;;29.16;39.51;96425.47;4936137;28;20031;-32
2021/06/28 04:13:24;;;;;;;2.00;1.23;;;;;;;29.17;39.66;96413.97;4950334;28;20569;-32
2021/06/28 04:15:49;;;;;;;1.88;1.02;;;;;;;29.17;39.18;96420.09;4935327;28;20030;-38
2021/06/28 04:18:14;;;;;;;1.75;0.93;;;;;;;29.17;39.29;96420.09;4938439;28;20038;-37
2021/06/28 04:20:40;;;;;;;1.95;1.13;;;;;;;29.16;39.31;96422.84;4933962;28;20147;-31
2021/06/28 04:23:06;;;;;;;2.55;1.15;;;;;;;29.16;39.34;96428.97;4937000;28;20027;-31
2021/06/28 04:25:31;;;;;;;1.73;0.90;;;;;;;29.15;39.40;96437.84;4950323;28;20082;-35
2021/06/28 04:27:56;;;;;;;1.13;0.93;;;;;;;29.16;39.47;96439.53;4933900;28;20962;-34
2021/06/28 04:30:22;;;;;;;0.90;0.80;;;;;;;29.16;39.44;96455.34;4935213;28;20054;-30
2021/06/28 04:32:48;;;;;;;1.83;1.30;;;;;;;29.17;39.47;96464.94;4936363;28;20035;-34
2021/06/28 04:35:15;;;;;;;2.03;1.15;;;;;;;29.17;39.21;96469.38;4963935;28;20070;-35
2021/06/28 04:37:41;;;;;;;1.92;1.00;;;;;;;29.18;39.34;96464.00;4937015;28;20031;-35
2021/06/28 04:40:08;;;;;;;1.23;1.00;;;;;;;29.17;39.47;96480.78;4936131;28;20567;-34
2021/06/28 04:42:33;;;;;;;1.35;0.98;;;;;;;29.18;39.47;96473.72;4933933;28;20121;-34
2021/06/28 04:44:59;;;;;;;1.60;0.77;;;;;;;29.18;39.21;96479.81;4947085;28;20027;-35
2021/06/28 04:47:24;;;;;;;2.45;1.10;;;;;;;29.15;39.11;96472.16;4936835;28;20082;-32
2021/06/28 04:49:49;;;;;;;1.63;1.20;;;;;;;29.20;39.21;96472.66;4936719;28;20038;-35
2021/06/28 04:52:15;;;;;;;2.15;1.08;;;;;;;29.19;39.36;96470.13;4933916;28;20378;-34
2021/06/28 04:54:40;;;;;;;1.20;0.90;;;;;;;29.18;39.24;96469.28;4934472;28;20035;-34
2021/06/28 04:57:06;;;;;;;3.17;0.95;;;;;;;29.17;39.23;96472.88;4929429;28;20555;-31
2021/06/28 04:59:31;;;;;;;3.38;1.15;;;;;;;29.19;39.42;96470.97;4930220;28;20728;-36
2021/06/28 05:01:56;;;;;;;1.73;1.00;;;;;;;29.16;39.28;96471.19;4934892;28;20812;-34
2021/06/28 05:04:22;;;;;;;1.90;0.95;;;;;;;29.19;39.21;96484.16;4937111;28;20101;-34
2021/06/28 05:06:48;;;;;;;2.53;1.00;;;;;;;29.18;39.64;96482.47;4934784;28;20098;-34
2021/06/28 05:09:15;;;;;;;1.63;1.05;;;;;;;29.16;39.56;96475.59;4946863;28;20027;-36
2021/06/28 05:11:40;;;;;;;1.33;0.95;;;;;;;29.17;39.22;96478.16;4931437;28;20122;-32
2021/06/28 05:14:06;;;;;;;1.73;1.15;;;;;;;29.17;39.33;96478.16;4931718;28;20979;-30
2021/06/28 05:16:31;;;;;;;1.60;1.02;;;;;;;29.18;39.10;96479.00;4934448;28;20666;-35
2021/06/28 05:18:57;;;;;;;0.90;0.90;;;;;;;29.17;39.42;96483.41;4935804;28;20038;-35
2021/06/28 05:21:22;;;;;;;5.15;0.82;;;;;;;29.18;39.43;96473.72;4930100;28;20070;-31
2021/06/28 05:23:47;;;;;;;1.63;0.98;;;;;;;29.19;39.49;96480.69;4929365;28;20031;-36
2021/06/28 05:26:13;;;;;;;1.50;1.02;;;;;;;29.19;39.54;96465.69;4932160;28;20039;-37
2021/06/28 05:28:38;;;;;;;3.25;1.10;;;;;;;29.20;39.52;96477.06;4934224;28;20048;-38
2021/06/28 05:32:02;;;;;;;1.55;0.90;;;;;;;-148.56;100.00;61375.16;4932934;28;20043;-36
2021/06/28 05:35:26;;;;;;;1.63;0.88;;;;;;;-148.56;100.00;61375.16;4939507;28;21123;-35
2021/06/28 05:38:50;;;;;;;2.00;0.95;;;;;;;-148.56;100.00;61375.16;4930442;28;20186;-35
2021/06/28 05:42:14;;;;;;;1.63;1.20;;;;;;;-148.56;100.00;61375.16;4930808;28;20142;-35
2021/06/28 05:44:40;;;;;;;2.25;1.20;;;;;;;29.17;39.46;96469.38;4942478;28;20596;-30
2021/06/28 05:47:05;;;;;;;2.67;1.27;;;;;;;29.20;39.63;96451.53;4931701;28;20043;-33
2021/06/28 05:49:33;;;;;;;2.35;0.80;;;;;;;29.20;39.42;96456.81;4939961;28;20085;-35
2021/06/28 05:51:59;;;;;;;2.00;1.13;;;;;;;29.20;39.45;96451.53;4936245;28;20027;-32
2021/06/28 05:54:27;;;;;;;1.50;1.20;;;;;;;29.20;39.37;96459.47;4933975;28;20046;-32
2021/06/28 05:56:52;;;;;;;1.48;1.10;;;;;;;29.20;39.36;96455.97;4941230;28;20027;-35
2021/06/28 05:59:17;;;;;;;2.85;1.38;;;;;;;29.20;39.55;96455.97;4937776;28;20031;-38
2021/06/28 06:01:43;;;;;;;3.60;1.30;;;;;;;29.20;39.55;96463.88;4937737;28;20050;-33
2021/06/28 06:04:14;;;;;;;2.22;1.20;;;;;;;29.19;39.63;96465.69;4934319;28;20101;-30
2021/06/28 06:06:39;;;;;;;3.07;1.10;;;;;;;29.16;39.44;96451.88;4936953;28;20030;-33
2021/06/28 06:09:05;;;;;;;3.33;1.20;;;;;;;29.20;39.23;96462.09;4936340;28;20050;-31
2021/06/28 06:11:30;;;;;;;1.27;1.00;;;;;;;29.20;39.47;96456.81;4934283;28;20041;-30
2021/06/28 06:13:56;;;;;;;2.08;0.90;;;;;;;29.20;39.47;96448.91;4938509;28;20034;-36
2021/06/28 06:16:23;;;;;;;2.85;0.80;;;;;;;29.20;39.20;96448.91;4936541;28;20046;-34
2021/06/28 06:18:49;;;;;;;1.48;0.88;;;;;;;29.20;39.32;96451.53;4940527;28;20725;-32
2021/06/28 06:21:14;;;;;;;1.70;0.90;;;;;;;29.21;39.64;96447.09;4932843;28;20031;-35
2021/06/28 06:23:40;;;;;;;2.25;1.13;;;;;;;29.22;39.24;96446.16;4940183;28;20050;-31
2021/06/28 06:26:05;;;;;;;2.67;1.00;;;;;;;29.23;39.57;96446.97;4935458;28;20042;-34
2021/06/28 06:28:30;;;;;;;2.45;1.08;;;;;;;29.25;39.45;96450.38;4932379;28;20464;-35
2021/06/28 06:30:56;;;;;;;2.03;1.00;;;;;;;29.25;39.06;96455.66;4934777;28;20047;-36
2021/06/28 06:33:21;;;;;;;6.13;1.25;;;;;;;29.27;39.44;96453.72;4937477;28;20027;-33
2021/06/28 06:35:47;;;;;;;4.28;1.23;;;;;;;29.27;39.49;96453.72;4938179;28;20663;-34
2021/06/28 06:38:13;;;;;;;2.75;1.30;;;;;;;29.28;39.62;96458.03;4937528;28;20752;-36
2021/06/28 06:40:38;;;;;;;4.05;1.58;;;;;;;29.27;39.55;96456.38;4931392;28;20031;-34
2021/06/28 06:43:04;;;;;;;4.75;1.35;;;;;;;29.26;39.53;96452.91;4935736;28;20026;-40
2021/06/28 06:45:29;;;;;;;6.63;1.50;;;;;;;29.27;39.31;96459.00;4936690;28;20038;-35
2021/06/28 06:47:54;;;;;;;4.90;1.38;;;;;;;29.27;39.25;96456.38;4934397;28;20815;-35
2021/06/28 06:50:22;;;;;;;4.95;1.70;;;;;;;29.26;39.70;96454.69;4933865;28;20518;-33
2021/06/28 06:52:48;;;;;;;7.18;1.60;;;;;;;29.26;39.52;96459.97;4945098;28;20027;-33
2021/06/28 06:55:17;;;;;;;5.07;2.03;;;;;;;29.25;39.29;96463.56;4942920;28;20026;-37
2021/06/28 06:57:42;;;;;;;2.30;1.40;;;;;;;29.24;39.60;96467.13;4933498;28;20038;-33
2021/06/28 07:00:13;;;;;;;2.13;1.30;;;;;;;29.22;39.63;96475.19;4929395;28;20962;-31
2021/06/28 07:02:39;;;;;;;2.85;1.58;;;;;;;29.20;39.94;96470.00;4922815;28;20114;-37
2021/06/28 07:05:04;;;;;;;5.72;1.52;;;;;;;29.20;39.97;96472.66;4930429;28;20447;-36
2021/06/28 07:07:30;;;;;;;7.28;1.80;;;;;;;29.19;39.75;96475.41;4948716;28;20985;-31
2021/06/28 07:09:55;;;;;;;5.40;1.60;;;;;;;29.18;39.78;96479.00;4948428;28;20055;-30
2021/06/28 07:12:20;;;;;;;4.20;1.60;;;;;;;29.17;39.68;96478.16;4932806;28;20081;-37
2021/06/28 07:14:46;;;;;;;5.72;1.98;;;;;;;29.16;39.72;96476.47;4932106;28;20027;-35
2021/06/28 07:17:11;;;;;;;10.68;2.30;;;;;;;29.16;39.78;96483.53;4932767;28;20473;-30
2021/06/28 07:19:37;;;;;;;12.23;2.13;;;;;;;29.15;39.79;96477.44;4934443;28;20034;-30
2021/06/28 07:22:02;;;;;;;8.15;2.22;;;;;;;29.15;39.47;96481.84;4931590;28;20110;-28
2021/06/28 07:24:28;;;;;;;18.17;2.00;;;;;;;29.15;39.62;96484.50;4934041;28;20116;-35
2021/06/28 07:26:53;;;;;;;10.35;1.65;;;;;;;29.14;39.38;96486.28;4948236;28;20585;-35
2021/06/28 07:29:20;;;;;;;16.15;2.70;;;;;;;29.10;39.54;96478.72;4932305;28;20361;-30
2021/06/28 07:31:46;;;;;;;4.57;1.90;;;;;;;29.14;39.48;96491.53;4948739;28;20047;-31
2021/06/28 07:34:11;;;;;;;5.72;1.95;;;;;;;29.14;39.29;96488.91;4933244;28;20027;-33
2021/06/28 07:36:37;;;;;;;5.03;1.63;;;;;;;29.12;38.94;96496.09;4930175;28;20370;-32
2021/06/28 07:39:03;;;;;;;10.70;1.95;;;;;;;29.11;38.91;96497.06;4933722;28;20027;-37
2021/06/28 07:41:32;;;;;;;4.20;1.60;;;;;;;29.12;38.78;96500.53;4945854;28;20223;-33
2021/06/28 07:43:58;;;;;;;6.15;1.48;;;;;;;29.11;38.95;96499.72;4962159;28;20026;-34
2021/06/28 07:46:24;;;;;;;5.63;1.52;;;;;;;29.11;39.19;96504.13;4941857;28;20031;-32
2021/06/28 07:49:48;;;;;;;1.90;1.40;;;;;;;-148.56;100.00;61375.16;4945771;28;20069;-33
2021/06/28 07:53:12;;;;;;;4.93;1.92;;;;;;;-148.56;100.00;61375.16;4929661;28;20034;-34
2021/06/28 07:56:36;;;;;;;7.22;1.75;;;;;;;-148.56;100.00;61375.16;4964371;28;20267;-35
2021/06/28 08:00:00;;;;;;;6.70;1.77;;;;;;;-148.56;100.00;61375.16;4932866;28;20113;-27
2021/06/28 08:03:24;;;;;;;2.80;1.63;;;;;;;-148.56;100.00;61375.16;4960859;28;20047;-34
2021/06/28 08:06:48;;;;;;;5.63;1.70;;;;;;;-148.56;100.00;61375.16;4932605;28;20031;-33
2021/06/28 08:10:12;;;;;;;2.30;1.88;;;;;;;-148.56;100.00;61375.16;4930376;28;20023;-34
2021/06/28 08:13:39;;;;;;;2.55;1.67;;;;;;;-148.56;100.00;61375.16;4960457;28;20569;-34
2021/06/28 08:17:03;;;;;;;5.68;1.45;;;;;;;-148.56;100.00;61375.16;4932506;28;20096;-34
2021/06/28 08:20:26;;;;;;;8.25;1.85;;;;;;;-148.56;100.00;61375.16;4931738;28;20084;-31
2021/06/28 08:23:50;;;;;;;6.40;2.03;;;;;;;-148.56;100.00;61375.16;4932409;28;20727;-30
2021/06/28 08:27:14;;;;;;;4.95;1.80;;;;;;;-148.56;100.00;61375.16;4935343;28;20113;-33
2021/06/28 08:30:38;;;;;;;5.75;1.52;;;;;;;-148.56;100.00;61375.16;4938631;28;20126;-33
2021/06/28 08:34:03;;;;;;;11.20;1.77;;;;;;;-148.56;100.00;61375.16;4932142;28;20745;-40
2021/06/28 08:37:27;;;;;;;4.07;1.70;;;;;;;-148.56;100.00;61375.16;4933546;28;20400;-31
2021/06/28 08:40:51;;;;;;;5.45;2.00;;;;;;;-148.56;100.00;61375.16;4932703;28;21028;-30
2021/06/28 08:44:15;;;;;;;4.93;2.08;;;;;;;-148.56;100.00;61375.16;4929503;28;20039;-33
2021/06/28 08:47:42;;;;;;;5.75;1.90;;;;;;;-148.56;100.00;61375.16;4930899;28;20023;-36
2021/06/28 08:51:06;;;;;;;3.22;1.70;;;;;;;-148.56;100.00;61375.16;4934565;28;20808;-32
2021/06/28 08:54:30;;;;;;;9.18;2.08;;;;;;;-148.56;100.00;61375.16;4948821;28;20030;-33
2021/06/28 08:57:54;;;;;;;4.88;1.90;;;;;;;-148.56;100.00;61375.16;4950666;28;20034;-33
2021/06/28 09:01:18;;;;;;;3.25;1.60;;;;;;;-148.56;100.00;61375.16;4940610;28;20036;-36
2021/06/28 09:05:18;;;;;;;5.78;1.92;;;;;;;-148.56;100.00;61375.16;4937687;28;20030;-31
2021/06/28 09:08:55;;;;;;;4.90;1.80;;;;;;;-148.56;100.00;61375.16;4933646;28;20724;-34
2021/06/28 09:12:19;;;;;;;11.65;1.83;;;;;;;-148.56;100.00;61375.16;4935948;28;20166;-36
2021/06/28 09:15:52;;;;;;;8.88;1.95;;;;;;;-148.56;100.00;61375.16;4936852;28;20062;-32
2021/06/28 09:19:23;;;;;;;8.20;2.78;;;;;;;-148.56;100.00;61375.16;4937584;28;20037;-35
2021/06/28 09:22:48;;;;;;;6.32;1.90;;;;;;;-148.56;100.00;61375.16;4937489;28;20047;-36
2021/06/28 09:26:28;;;;;;;6.60;1.80;;;;;;;-148.56;100.00;61375.16;4953627;28;20026;-30
2021/06/28 09:29:58;;;;;;;10.05;2.10;;;;;;;-148.56;100.00;61375.16;4952254;28;20710;-34
2021/06/28 09:33:22;;;;;;;7.35;1.95;;;;;;;-148.56;100.00;61375.16;4935540;28;20086;-36
2021/06/28 09:36:50;;;;;;;7.68;1.98;;;;;;;-148.56;100.00;61375.16;4936460;28;20038;-34
2021/06/28 09:40:16;;;;;;;8.73;2.00;;;;;;;-148.56;100.00;61375.16;4935771;28;20031;-37
2021/06/28 09:43:40;;;;;;;6.13;2.42;;;;;;;-148.56;100.00;61375.16;4953084;28;20144;-34
2021/06/28 09:47:12;;;;;;;7.07;2.20;;;;;;;-148.56;100.00;61375.16;4951425;28;20023;-32
2021/06/28 09:50:37;;;;;;;9.77;1.90;;;;;;;-148.56;100.00;61375.16;4948975;28;20034;-36
2021/06/28 09:54:14;;;;;;;4.82;2.08;;;;;;;-148.56;100.00;61375.16;4935103;28;20034;-31
2021/06/28 09:57:38;;;;;;;5.53;2.05;;;;;;;-148.56;100.00;61375.16;4935534;28;20038;-35
2021/06/28 10:01:26;;;;;;;8.70;2.15;;;;;;;-148.56;100.00;61375.16;4937324;28;20038;-34
2021/06/28 10:05:05;;;;;;;4.82;1.75;;;;;;;-148.56;100.00;61375.16;4937807;28;20203;-37
2021/06/28 10:08:36;;;;;;;7.07;2.00;;;;;;;-148.56;100.00;61375.16;4940709;28;20576;-32
2021/06/28 10:12:23;;;;;;;7.38;1.85;;;;;;;-148.56;100.00;61375.16;4933666;28;20764;-37
2021/06/28 10:15:47;;;;;;;6.03;1.90;;;;;;;-148.56;100.00;61375.16;4936860;28;20758;-33
2021/06/28 10:19:40;;;;;;;5.45;1.98;;;;;;;-148.56;100.00;61375.16;4936604;28;20062;-35
2021/06/28 10:23:04;;;;;;;4.20;2.03;;;;;;;-148.56;100.00;61375.16;4951400;28;20077;-36
2021/06/28 10:26:28;;;;;;;3.65;2.05;;;;;;;-148.56;100.00;61375.16;4945511;28;20046;-34
2021/06/28 10:29:53;;;;;;;6.65;1.80;;;;;;;-148.56;100.00;61375.16;4952800;28;20031;-34
2021/06/28 10:33:17;;;;;;;7.97;1.92;;;;;;;-148.56;100.00;61375.16;4939181;28;20042;-31
2021/06/28 10:36:41;;;;;;;7.18;1.77;;;;;;;-148.56;100.00;61375.16;4965214;28;20768;-32
2021/06/28 10:40:09;;;;;;;5.15;1.88;;;;;;;-148.56;100.00;61375.16;4931865;28;20109;-35
2021/06/28 10:43:37;;;;;;;5.28;2.10;;;;;;;-148.56;100.00;61375.16;4935759;28;20041;-36
2021/06/28 10:47:05;;;;;;;8.35;1.85;;;;;;;-148.56;100.00;61375.16;4932168;28;20066;-33
2021/06/28 10:50:55;;;;;;;6.10;2.03;;;;;;;-148.56;100.00;61375.16;4946683;28;20235;-31
2021/06/28 10:54:32;;;;;;;9.15;1.80;;;;;;;-148.56;100.00;61375.16;4930675;28;20139;-37
2021/06/28 10:57:56;;;;;;;9.70;2.00;;;;;;;-148.56;100.00;61375.16;4931938;28;20221;-36
2021/06/28 11:01:39;;;;;;;5.18;2.10;;;;;;;-148.56;100.00;61375.16;4930295;28;20037;-33
2021/06/28 11:05:06;;;;;;;8.80;2.17;;;;;;;-148.56;100.00;61375.16;4930214;28;20126;-34
2021/06/28 11:08:54;;;;;;;5.63;1.70;;;;;;;-148.56;100.00;61375.16;4928919;28;20109;-33
2021/06/28 11:12:37;;;;;;;5.53;1.83;;;;;;;-148.56;100.00;61375.16;4929713;28;20020;-29
2021/06/28 11:16:32;;;;;;;5.80;2.22;;;;;;;-148.56;100.00;61375.16;4930419;28;20047;-35
2021/06/28 11:19:58;;;;;;;4.07;2.05;;;;;;;-148.56;100.00;61375.16;4947762;28;20035;-32
2021/06/28 11:23:25;;;;;;;5.00;2.05;;;;;;;-148.56;100.00;61375.16;4933175;28;20609;-36
2021/06/28 11:26:50;;;;;;;7.18;1.90;;;;;;;-148.56;100.00;61375.16;4930561;28;20050;-35
2021/06/28 11:30:35;;;;;;;7.15;2.13;;;;;;;-148.56;100.00;61375.16;4933294;28;20819;-33
2021/06/28 11:34:00;;;;;;;8.10;2.20;;;;;;;-148.56;100.00;61375.16;4934949;28;20081;-32
2021/06/28 11:37:31;;;;;;;8.10;2.25;;;;;;;-148.56;100.00;61375.16;4922719;28;20047;-36
2021/06/28 11:41:00;;;;;;;11.43;2.45;;;;;;;-148.56;100.00;61375.16;4944797;28;20026;-33
2021/06/28 11:44:34;;;;;;;10.52;2.40;;;;;;;-148.56;100.00;61375.16;4932240;28;20035;-35
2021/06/28 11:47:59;;;;;;;9.48;2.33;;;;;;;-148.56;100.00;61375.16;4945996;28;20031;-32
2021/06/28 11:51:24;;;;;;;5.90;2.10;;;;;;;-148.56;100.00;61375.16;4936853;28;20031;-34
2021/06/28 11:55:02;;;;;;;11.50;2.33;;;;;;;-148.56;100.00;61375.16;4929326;28;20027;-32
2021/06/28 11:58:26;;;;;;;11.35;2.80;;;;;;;-148.56;100.00;61375.16;4933767;28;20035;-35
2021/06/28 12:02:04;;;;;;;8.07;2.60;;;;;;;-148.56;100.00;61375.16;4931908;28;20057;-33
2021/06/28 12:05:30;;;;;;;9.20;2.20;;;;;;;-148.56;100.00;61375.16;4930812;28;20045;-35
2021/06/28 12:09:29;;;;;;;7.45;2.20;;;;;;;-148.56;100.00;61375.16;4932155;28;20035;-34
2021/06/28 12:12:56;;;;;;;6.15;2.13;;;;;;;-148.56;100.00;61375.16;4911433;28;20030;-36
2021/06/28 12:16:27;;;;;;;14.02;2.17;;;;;;;-148.56;100.00;61375.16;4929688;28;20378;-35
2021/06/28 12:20:01;;;;;;;6.75;1.95;;;;;;;-148.56;100.00;61375.16;4930185;28;20047;-35
2021/06/28 12:23:25;;;;;;;4.32;2.10;;;;;;;-148.56;100.00;61375.16;4932700;28;20118;-32
2021/06/28 12:26:59;;;;;;;7.20;2.45;;;;;;;-148.56;100.00;61375.16;4935918;28;20429;-37
2021/06/28 12:30:23;;;;;;;8.48;2.50;;;;;;;-148.56;100.00;61375.16;4929216;28;20988;-31
2021/06/28 12:33:53;;;;;;;8.45;2.28;;;;;;;-148.56;100.00;61375.16;4931462;28;20077;-30
2021/06/28 12:37:25;;;;;;;8.43;2.78;;;;;;;-148.56;100.00;61375.16;4934063;28;20038;-34
2021/06/28 12:40:49;;;;;;;10.27;3.20;;;;;;;-148.56;100.00;61375.16;4937202;28;20030;-33
2021/06/28 12:44:14;;;;;;;19.27;3.15;;;;;;;-148.56;100.00;61375.16;4935247;28;20042;-35
2021/06/28 12:47:38;;;;;;;7.30;2.55;;;;;;;-148.56;100.00;61375.16;4941370;28;20040;-34
2021/06/28 12:51:03;;;;;;;8.90;2.75;;;;;;;-148.56;100.00;61375.16;4941090;28;20133;-31
2021/06/28 12:54:27;;;;;;;10.95;2.85;;;;;;;-148.56;100.00;61375.16;4934637;28;20031;-29